Time;durP1;ratioP1;P1;durP2;ratioP2;P2;SDS_P1;SDS_P2;PMS_P1;PMS_P2;Temp;Humidity;BMP_temperature;BMP_pressure;BME280_temperature;BME280_humidity;BME280_pressure;Samples;Min_cycle;Max_cycle;Signal;HPM_P1;HPM_P2
2022/07/16 00:03:15;;;;;;;11.23;4.95;;;15.80;99.90;;;;;;5081377;28;21040;-55
2022/07/16 00:05:41;;;;;;;10.23;4.23;;;15.70;99.90;;;;;;5091300;28;20400;-55
2022/07/16 00:08:06;;;;;;;12.50;4.80;;;15.70;99.90;;;;;;5077038;28;20420;-56
2022/07/16 00:10:32;;;;;;;11.48;5.20;;;15.80;99.90;;;;;;5088305;28;20394;-55
2022/07/16 00:12:58;;;;;;;8.95;4.45;;;15.70;99.90;;;;;;5076002;28;20396;-55
2022/07/16 00:15:23;;;;;;;12.90;4.50;;;15.60;99.90;;;;;;5071095;28;20400;-55
2022/07/16 00:19:15;;;;;;;9.30;4.50;;;15.60;99.90;;;;;;5070542;28;20374;-55
2022/07/16 00:20:35;;;;;;;9.63;4.30;;;15.60;99.90;;;;;;5089299;28;20501;-55
2022/07/16 00:23:00;;;;;;;8.77;4.00;;;15.60;99.90;;;;;;5088666;28;20502;-55
2022/07/16 00:25:26;;;;;;;8.70;4.47;;;15.50;99.90;;;;;;5071662;28;20493;-55
2022/07/16 00:27:51;;;;;;;10.83;4.10;;;15.50;99.90;;;;;;5081705;28;20475;-57
2022/07/16 00:30:17;;;;;;;9.38;4.10;;;15.40;99.90;;;;;;5089883;28;20766;-55
2022/07/16 00:32:43;;;;;;;9.80;4.82;;;15.40;99.90;;;;;;5071817;28;20383;-55
2022/07/16 00:35:08;;;;;;;10.17;4.13;;;15.40;99.90;;;;;;5069346;28;20372;-55
2022/07/16 00:37:34;;;;;;;9.23;4.53;;;15.30;99.90;;;;;;5086949;28;20390;-55
2022/07/16 00:40:00;;;;;;;9.48;4.70;;;15.30;99.90;;;;;;5089676;28;20935;-56
2022/07/16 00:42:26;;;;;;;9.87;4.43;;;15.30;99.90;;;;;;5072802;28;20485;-54
2022/07/16 00:44:51;;;;;;;9.02;4.32;;;15.30;99.90;;;;;;5070031;28;20402;-57
2022/07/16 00:47:17;;;;;;;10.63;5.10;;;15.20;99.90;;;;;;5083943;28;20835;-54
2022/07/16 00:49:42;;;;;;;9.80;5.10;;;15.10;1.00;;;;;;5090308;28;20378;-54
2022/07/16 00:52:08;;;;;;;11.07;4.88;;;15.10;1.00;;;;;;5075694;28;20876;-55
2022/07/16 00:54:34;;;;;;;10.85;5.03;;;15.00;1.00;;;;;;5069946;28;21079;-54
2022/07/16 00:57:00;;;;;;;13.30;4.70;;;15.00;1.00;;;;;;5088125;28;20394;-54
2022/07/16 00:59:25;;;;;;;9.63;4.80;;;14.90;1.00;;;;;;5090089;28;20843;-54
2022/07/16 01:01:51;;;;;;;9.00;4.33;;;14.80;1.00;;;;;;5071009;28;20412;-54
2022/07/16 01:04:17;;;;;;;10.10;4.40;;;14.90;1.00;;;;;;5069299;28;20423;-54
2022/07/16 01:06:45;;;;;;;11.53;4.80;;;14.90;1.00;;;;;;5086544;28;20751;-54
2022/07/16 01:09:11;;;;;;;9.80;4.50;;;14.90;1.00;;;;;;5089030;28;20854;-55
2022/07/16 01:11:37;;;;;;;10.32;4.78;;;14.90;1.00;;;;;;5073005;28;20888;-55
2022/07/16 01:14:05;;;;;;;9.90;4.23;;;14.90;1.00;;;;;;5068978;28;20392;-54
2022/07/16 01:16:30;;;;;;;8.77;4.60;;;15.00;1.00;;;;;;5081001;28;20404;-54
2022/07/16 01:18:56;;;;;;;9.40;4.73;;;15.00;1.00;;;;;;5069205;28;20384;-57
2022/07/16 01:21:22;;;;;;;10.10;4.80;;;14.90;1.00;;;;;;5069500;28;20515;-54
2022/07/16 01:23:49;;;;;;;8.90;4.43;;;14.80;1.00;;;;;;5069449;28;20422;-54
2022/07/16 01:26:15;;;;;;;10.55;5.10;;;14.70;1.00;;;;;;5088367;28;20424;-54
2022/07/16 01:28:41;;;;;;;12.32;4.80;;;14.70;1.00;;;;;;5089671;28;20398;-54
2022/07/16 01:31:06;;;;;;;10.30;4.40;;;14.60;1.00;;;;;;5068808;28;20396;-54
2022/07/16 01:33:35;;;;;;;9.90;4.90;;;14.50;1.00;;;;;;5068884;28;20387;-55
2022/07/16 01:36:02;;;;;;;12.10;4.87;;;14.40;1.00;;;;;;5087328;28;20398;-54
2022/07/16 01:38:28;;;;;;;11.67;5.23;;;14.40;1.00;;;;;;5089587;28;20465;-54
2022/07/16 01:40:55;;;;;;;8.98;4.85;;;14.50;1.00;;;;;;5090647;28;20409;-59
2022/07/16 01:43:23;;;;;;;9.05;5.10;;;14.40;1.00;;;;;;5093454;28;20390;-54
2022/07/16 01:45:49;;;;;;;10.47;5.30;;;14.30;1.00;;;;;;5076174;28;20486;-54
2022/07/16 01:48:15;;;;;;;10.07;5.00;;;14.30;11.30;;;;;;5079675;28;20627;-54
2022/07/16 01:50:42;;;;;;;10.30;5.57;;;14.20;38.90;;;;;;5091724;28;20401;-55
2022/07/16 01:53:09;;;;;;;10.85;5.78;;;14.10;77.20;;;;;;5083331;28;20395;-54
2022/07/16 01:55:35;;;;;;;9.60;5.00;;;14.10;99.90;;;;;;5073247;28;20437;-54
2022/07/16 01:58:06;;;;;;;11.17;4.93;;;14.10;43.10;;;;;;5083994;28;20393;-55
2022/07/16 02:00:32;;;;;;;10.77;5.10;;;14.10;8.50;;;;;;5093379;28;20414;-54
2022/07/16 02:02:58;;;;;;;13.18;5.07;;;14.00;59.20;;;;;;5080759;28;20403;-54
2022/07/16 02:05:25;;;;;;;11.00;4.72;;;14.00;95.50;;;;;;5073023;28;20388;-54
2022/07/16 02:07:51;;;;;;;10.23;5.13;;;13.90;99.90;;;;;;5074120;28;20391;-54
2022/07/16 02:10:16;;;;;;;9.85;4.78;;;13.90;99.90;;;;;;5072096;28;20376;-54
2022/07/16 02:12:42;;;;;;;11.37;5.30;;;13.90;99.90;;;;;;5085227;28;20401;-54
2022/07/16 02:15:09;;;;;;;12.17;5.30;;;13.80;99.90;;;;;;5092527;28;20368;-55
2022/07/16 02:17:35;;;;;;;12.35;5.25;;;13.80;99.90;;;;;;5081342;28;20494;-55
2022/07/16 02:20:02;;;;;;;9.63;5.13;;;13.80;99.90;;;;;;5071921;28;20383;-55
2022/07/16 02:22:28;;;;;;;12.55;4.70;;;13.80;99.90;;;;;;5089554;28;20511;-55
2022/07/16 02:24:53;;;;;;;11.10;5.13;;;13.70;99.90;;;;;;5092531;28;20424;-57
2022/07/16 02:27:19;;;;;;;9.57;5.00;;;13.70;99.90;;;;;;5075654;28;20508;-55
2022/07/16 02:29:44;;;;;;;10.20;5.60;;;13.60;99.90;;;;;;5072409;28;20403;-55
2022/07/16 02:32:10;;;;;;;10.98;4.97;;;13.60;99.90;;;;;;5084749;28;20736;-55
2022/07/16 02:34:36;;;;;;;8.73;5.07;;;13.60;99.90;;;;;;5092644;28;20727;-55
2022/07/16 02:37:01;;;;;;;9.50;4.43;;;13.70;99.90;;;;;;5078321;28;20384;-55
2022/07/16 02:39:27;;;;;;;9.07;4.57;;;13.70;99.90;;;;;;5072367;28;20390;-55
2022/07/16 02:41:53;;;;;;;8.90;4.60;;;13.80;95.70;;;;;;5082729;28;20413;-55
2022/07/16 02:44:19;;;;;;;13.03;4.40;;;13.80;94.40;;;;;;5092004;28;20428;-55
2022/07/16 02:46:45;;;;;;;11.82;5.00;;;13.80;58.10;;;;;;5081126;28;20482;-55
2022/07/16 02:49:10;;;;;;;12.00;4.90;;;13.80;99.90;;;;;;5071755;28;20383;-55
2022/07/16 02:51:36;;;;;;;9.30;4.10;;;13.70;99.90;;;;;;5088646;28;20473;-55
2022/07/16 02:54:02;;;;;;;10.45;5.10;;;13.70;99.90;;;;;;5091666;28;20470;-56
2022/07/16 02:56:28;;;;;;;9.88;5.05;;;13.60;99.90;;;;;;5076144;28;20431;-55
2022/07/16 02:58:53;;;;;;;10.33;4.53;;;13.60;99.90;;;;;;5072238;28;20387;-56
2022/07/16 03:01:19;;;;;;;9.05;4.75;;;13.50;99.90;;;;;;5085995;28;20412;-55
2022/07/16 03:03:45;;;;;;;11.73;5.13;;;13.40;99.90;;;;;;5092291;28;20389;-55
2022/07/16 03:06:10;;;;;;;10.80;4.78;;;13.40;99.90;;;;;;5077460;28;20736;-55
2022/07/16 03:08:36;;;;;;;11.80;4.65;;;13.40;99.90;;;;;;5071940;28;20391;-55
2022/07/16 03:11:02;;;;;;;10.37;4.77;;;13.40;1.00;;;;;;5081963;28;20394;-56
2022/07/16 03:13:27;;;;;;;10.20;4.93;;;13.30;1.00;;;;;;5092023;28;20431;-57
2022/07/16 03:15:53;;;;;;;10.93;4.60;;;13.30;1.00;;;;;;5080545;28;20751;-57
2022/07/16 03:18:21;;;;;;;10.45;4.80;;;13.20;1.00;;;;;;5071099;28;20414;-59
2022/07/16 03:20:47;;;;;;;10.27;4.57;;;13.10;89.80;;;;;;5088962;28;20432;-59
2022/07/16 03:23:12;;;;;;;9.13;4.80;;;13.20;87.40;;;;;;5089296;28;20417;-59
2022/07/16 03:25:38;;;;;;;10.32;4.65;;;13.20;37.20;;;;;;5080334;28;20387;-60
2022/07/16 03:28:04;;;;;;;9.65;4.55;;;13.20;1.00;;;;;;5070597;28;20418;-60
2022/07/16 03:30:30;;;;;;;13.32;4.95;;;13.20;1.00;;;;;;5079996;28;20397;-58
2022/07/16 03:32:58;;;;;;;10.37;4.73;;;13.20;1.00;;;;;;5091673;28;20735;-60
2022/07/16 03:35:23;;;;;;;10.00;4.72;;;13.30;1.00;;;;;;5082225;28;20395;-59
2022/07/16 03:40:33;;;;;;;13.30;5.38;;;13.20;1.00;;;;;;5080626;28;20414;-55
2022/07/16 03:42:59;;;;;;;8.00;4.30;;;13.20;1.00;;;;;;5070506;28;20384;-58
2022/07/16 03:45:25;;;;;;;9.23;4.38;;;13.30;1.00;;;;;;5080494;28;20386;-55
2022/07/16 03:47:51;;;;;;;9.70;4.68;;;13.20;1.00;;;;;;5086145;28;20515;-56
2022/07/16 03:50:17;;;;;;;9.27;4.80;;;13.30;1.00;;;;;;5070318;28;20391;-56
2022/07/16 03:52:43;;;;;;;9.73;4.75;;;13.30;1.00;;;;;;5071815;28;20776;-56
2022/07/16 03:55:09;;;;;;;9.52;4.50;;;13.30;1.00;;;;;;5068845;28;20411;-54
2022/07/16 03:57:35;;;;;;;10.48;4.43;;;13.30;1.00;;;;;;5075362;28;20460;-55
2022/07/16 04:00:00;;;;;;;8.40;4.03;;;13.20;1.00;;;;;;5090357;28;20382;-56
2022/07/16 04:02:26;;;;;;;8.82;4.30;;;13.30;1.00;;;;;;5090361;28;20402;-55
2022/07/16 04:04:51;;;;;;;8.27;3.83;;;13.30;99.90;;;;;;5090900;28;20386;-55
2022/07/16 04:07:17;;;;;;;8.83;4.27;;;13.40;99.90;;;;;;5088951;28;21055;-55
2022/07/16 04:09:43;;;;;;;8.30;4.20;;;13.40;99.90;;;;;;5090921;28;20389;-54
2022/07/16 04:12:08;;;;;;;9.57;4.63;;;13.40;99.90;;;;;;5090235;28;20417;-55
2022/07/16 04:14:34;;;;;;;8.43;4.40;;;13.50;99.90;;;;;;5090828;28;20378;-54
2022/07/16 04:16:59;;;;;;;8.23;4.30;;;13.60;99.90;;;;;;5089895;28;20785;-57
2022/07/16 04:19:25;;;;;;;9.10;4.20;;;13.60;99.90;;;;;;5070394;28;20395;-54
2022/07/16 04:21:51;;;;;;;8.90;4.40;;;13.70;99.90;;;;;;5069121;28;20403;-54
2022/07/16 04:24:16;;;;;;;8.80;4.50;;;13.70;99.90;;;;;;5069769;28;20470;-54
2022/07/16 04:26:42;;;;;;;10.13;4.13;;;13.80;99.90;;;;;;5070217;28;20404;-54
2022/07/16 04:29:07;;;;;;;9.05;4.45;;;13.70;38.40;;;;;;5070150;28;20415;-55
2022/07/16 04:31:33;;;;;;;9.67;4.43;;;13.90;38.50;;;;;;5070418;28;20459;-54
2022/07/16 04:33:59;;;;;;;8.97;4.60;;;14.00;20.10;;;;;;5086060;28;20747;-57
2022/07/16 04:36:24;;;;;;;9.65;5.00;;;14.00;1.00;;;;;;5090343;28;20385;-54
2022/07/16 04:38:50;;;;;;;8.90;4.30;;;14.10;1.00;;;;;;5080394;28;20464;-54
2022/07/16 04:41:15;;;;;;;9.10;5.10;;;14.30;1.00;;;;;;5087806;28;20433;-54
2022/07/16 04:43:41;;;;;;;8.60;4.80;;;14.40;1.00;;;;;;5088723;28;20402;-54
2022/07/16 04:46:06;;;;;;;11.32;4.30;;;14.60;1.00;;;;;;5089813;28;20437;-54
2022/07/16 04:48:32;;;;;;;11.00;4.47;;;14.60;1.00;;;;;;5077246;28;20475;-55
2022/07/16 04:50:58;;;;;;;9.47;4.03;;;14.60;1.00;;;;;;5069745;28;20387;-56
2022/07/16 04:53:23;;;;;;;10.85;4.63;;;14.80;1.00;;;;;;5081309;28;20393;-53
2022/07/16 04:55:49;;;;;;;11.65;4.60;;;15.00;1.00;;;;;;5090086;28;20373;-53
2022/07/16 04:58:14;;;;;;;10.63;4.40;;;15.20;1.00;;;;;;5077885;28;20892;-53
2022/07/16 05:00:40;;;;;;;10.47;4.50;;;15.50;1.00;;;;;;5069826;28;20416;-53
2022/07/16 05:03:07;;;;;;;8.55;4.18;;;15.90;1.00;;;;;;5080147;28;20421;-54
2022/07/16 05:05:37;;;;;;;9.90;3.90;;;16.60;99.90;;;;;;5079677;28;20398;-53
2022/07/16 05:08:05;;;;;;;9.80;4.00;;;17.20;99.90;;;;;;5076950;28;20437;-53
2022/07/16 05:10:31;;;;;;;9.23;3.90;;;19.10;99.90;;;;;;5069665;28;20395;-53
2022/07/16 05:12:58;;;;;;;10.63;3.70;;;20.50;99.90;;;;;;5079384;28;20390;-57
2022/07/16 05:15:24;;;;;;;8.15;3.67;;;21.70;99.90;;;;;;5072433;28;20414;-56
2022/07/16 05:17:50;;;;;;;8.38;3.90;;;22.30;99.90;;;;;;5078518;28;20379;-57
2022/07/16 05:20:16;;;;;;;9.70;4.00;;;22.70;99.90;;;;;;5088900;28;20432;-56
2022/07/16 05:22:42;;;;;;;10.98;4.25;;;22.60;99.90;;;;;;5081436;28;20442;-56
2022/07/16 05:25:09;;;;;;;8.03;3.63;;;23.30;99.90;;;;;;5068609;28;20877;-56
2022/07/16 05:27:35;;;;;;;8.68;4.13;;;24.60;99.90;;;;;;5080393;28;20900;-54
2022/07/16 05:30:01;;;;;;;14.00;4.10;;;24.80;99.90;;;;;;5070374;28;20403;-57
2022/07/16 05:32:27;;;;;;;10.30;3.80;;;24.60;99.90;;;;;;5069429;28;20459;-54
2022/07/16 05:34:53;;;;;;;8.05;3.75;;;24.40;99.90;;;;;;5069484;28;20403;-54
2022/07/16 05:37:18;;;;;;;8.10;3.70;;;24.60;99.90;;;;;;5081093;28;20420;-54
2022/07/16 05:39:44;;;;;;;9.40;5.10;;;25.60;99.90;;;;;;5089638;28;20374;-54
2022/07/16 05:42:10;;;;;;;8.37;5.07;;;25.80;99.90;;;;;;5084376;28;20406;-54
2022/07/16 05:44:35;;;;;;;11.47;5.37;;;25.50;99.90;;;;;;5069809;28;20388;-53
2022/07/16 05:47:01;;;;;;;8.83;4.80;;;25.90;99.90;;;;;;5069713;28;20387;-57
2022/07/16 05:49:26;;;;;;;9.00;4.83;;;26.40;99.90;;;;;;5078080;28;20390;-54
2022/07/16 05:51:52;;;;;;;10.10;4.90;;;26.90;99.90;;;;;;5080860;28;20501;-54
2022/07/16 05:54:18;;;;;;;9.50;4.70;;;27.10;99.90;;;;;;5079783;28;20423;-54
2022/07/16 05:56:43;;;;;;;8.55;5.50;;;27.30;99.90;;;;;;5082363;28;20400;-55
2022/07/16 05:59:09;;;;;;;9.50;5.00;;;27.80;99.90;;;;;;5082258;28;20394;-55
2022/07/16 06:01:35;;;;;;;7.90;5.00;;;28.30;99.90;;;;;;5080305;28;20401;-54
2022/07/16 06:04:00;;;;;;;8.57;5.93;;;28.70;99.90;;;;;;5081476;28;20411;-58
2022/07/16 06:06:26;;;;;;;9.70;5.70;;;28.80;99.90;;;;;;5078655;28;20451;-54
2022/07/16 06:08:52;;;;;;;9.00;6.10;;;29.50;99.90;;;;;;5064088;28;20392;-55
2022/07/16 06:11:18;;;;;;;9.57;5.32;;;29.70;99.90;;;;;;5070343;28;20532;-55
2022/07/16 06:13:43;;;;;;;9.00;6.30;;;30.10;99.90;;;;;;5082020;28;20805;-54
2022/07/16 06:16:09;;;;;;;9.27;6.40;;;29.60;99.90;;;;;;5068078;28;20933;-51
2022/07/16 06:18:35;;;;;;;8.90;5.60;;;28.90;99.90;;;;;;5084041;28;20395;-53
2022/07/16 06:21:01;;;;;;;10.93;5.83;;;28.20;99.90;;;;;;5084828;28;20488;-62
2022/07/16 06:23:27;;;;;;;8.50;5.80;;;28.30;99.90;;;;;;5076325;28;20860;-56
2022/07/16 06:25:53;;;;;;;8.00;6.00;;;29.10;99.90;;;;;;5070234;28;20380;-53
2022/07/16 06:28:18;;;;;;;10.60;5.27;;;29.40;99.90;;;;;;5087266;28;20406;-53
2022/07/16 06:30:44;;;;;;;8.70;6.70;;;30.80;99.90;;;;;;5083686;28;20462;-53
2022/07/16 06:33:10;;;;;;;7.82;6.45;;;31.50;99.90;;;;;;5081602;28;20473;-53
2022/07/16 06:35:35;;;;;;;8.00;5.70;;;30.60;99.90;;;;;;5091336;28;20732;-53
2022/07/16 06:38:04;;;;;;;8.83;6.43;;;30.20;99.90;;;;;;5078540;28;20410;-61
2022/07/16 06:40:30;;;;;;;9.38;6.35;;;29.00;99.90;;;;;;5082435;28;20751;-54
2022/07/16 06:42:56;;;;;;;8.55;6.60;;;28.60;99.90;;;;;;5083518;28;20402;-53
2022/07/16 06:45:22;;;;;;;8.90;5.90;;;28.00;99.90;;;;;;5088956;28;20398;-54
2022/07/16 06:47:47;;;;;;;10.00;6.30;;;28.50;99.90;;;;;;5084850;28;20466;-55
2022/07/16 06:50:13;;;;;;;9.90;5.30;;;29.30;99.90;;;;;;5077317;28;20935;-53
2022/07/16 06:52:39;;;;;;;8.67;5.20;;;29.70;99.90;;;;;;5076545;28;20392;-57
2022/07/16 06:55:05;;;;;;;8.40;5.80;;;30.00;99.90;;;;;;5084950;28;20447;-57
2022/07/16 06:57:32;;;;;;;9.60;5.70;;;30.10;99.90;;;;;;5082838;28;20411;-55
2022/07/16 06:59:57;;;;;;;10.15;6.15;;;30.50;99.90;;;;;;5082300;28;20386;-54
2022/07/16 07:02:23;;;;;;;9.20;5.50;;;29.70;99.90;;;;;;5081597;28;20407;-53
2022/07/16 07:04:49;;;;;;;8.40;5.55;;;29.60;99.90;;;;;;5081238;28;20733;-58
2022/07/16 07:07:15;;;;;;;13.35;4.80;;;29.00;99.90;;;;;;5088374;28;20843;-54
2022/07/16 07:09:41;;;;;;;8.68;5.20;;;29.80;99.90;;;;;;5083312;28;20433;-55
2022/07/16 07:12:06;;;;;;;8.70;5.50;;;30.20;99.90;;;;;;5082191;28;20402;-53
2022/07/16 07:14:32;;;;;;;8.48;4.90;;;30.50;99.90;;;;;;5081998;28;20401;-54
2022/07/16 07:16:58;;;;;;;7.00;4.10;;;31.20;99.90;;;;;;5089134;28;20392;-54
2022/07/16 07:19:24;;;;;;;8.17;6.07;;;30.50;99.90;;;;;;5087685;28;20376;-54
2022/07/16 07:21:49;;;;;;;10.53;6.37;;;31.20;99.90;;;;;;5086781;28;20562;-54
2022/07/16 07:24:15;;;;;;;9.30;7.28;;;32.20;99.90;;;;;;5089759;28;20425;-54
2022/07/16 07:26:40;;;;;;;8.10;6.67;;;32.80;99.90;;;;;;5085060;28;20882;-54
2022/07/16 07:29:06;;;;;;;8.90;6.00;;;32.80;99.90;;;;;;5087992;28;20406;-54
2022/07/16 07:31:31;;;;;;;10.20;5.63;;;31.50;99.90;;;;;;5085383;28;20402;-56
2022/07/16 07:33:57;;;;;;;7.50;5.90;;;31.70;99.90;;;;;;5089796;28;20386;-56
2022/07/16 07:36:23;;;;;;;8.30;5.97;;;32.60;99.90;;;;;;5077319;28;20402;-58
2022/07/16 07:38:48;;;;;;;8.95;6.07;;;31.70;99.90;;;;;;5084808;28;20439;-54
2022/07/16 07:41:14;;;;;;;8.55;5.15;;;33.00;99.90;;;;;;5086286;28;20432;-54
2022/07/16 07:43:40;;;;;;;7.10;4.90;;;32.80;99.90;;;;;;5086825;28;20386;-58
2022/07/16 07:46:06;;;;;;;7.20;4.90;;;33.40;99.90;;;;;;5074520;28;20895;-54
2022/07/16 07:48:32;;;;;;;10.18;6.30;;;33.90;99.90;;;;;;5079911;28;20498;-57
2022/07/16 07:50:58;;;;;;;7.70;4.77;;;33.90;99.90;;;;;;5087151;28;20853;-60
2022/07/16 07:53:24;;;;;;;8.73;5.60;;;;;;;;;;5090239;28;20382;-54
2022/07/16 07:55:49;;;;;;;9.82;6.63;;;35.50;1.00;;;;;;5080872;28;20375;-54
2022/07/16 07:58:15;;;;;;;6.88;4.57;;;34.70;1.00;;;;;;5076799;28;20386;-56
2022/07/16 08:00:41;;;;;;;6.28;2.53;;;;;;;;;;5072960;28;20492;-55
2022/07/16 08:03:07;;;;;;;7.80;2.90;;;32.80;1.00;;;;;;5081536;28;20388;-54
2022/07/16 08:05:33;;;;;;;6.95;2.65;;;33.10;1.00;;;;;;5073643;28;20388;-54
2022/07/16 08:07:59;;;;;;;8.68;2.40;;;33.00;1.00;;;;;;5079635;28;20376;-59
2022/07/16 08:10:24;;;;;;;6.57;2.10;;;32.90;1.00;;;;;;5070227;28;20395;-54
2022/07/16 08:12:50;;;;;;;7.90;2.20;;;33.70;1.00;;;;;;5070707;28;20387;-54
2022/07/16 08:15:16;;;;;;;7.73;2.60;;;34.00;1.00;;;;;;5069747;28;20387;-54
2022/07/16 08:17:42;;;;;;;6.30;2.60;;;34.50;1.00;;;;;;5072159;28;20383;-54
2022/07/16 08:20:09;;;;;;;6.72;2.45;;;34.50;1.00;;;;;;5080086;28;20396;-54
2022/07/16 08:22:36;;;;;;;6.78;2.45;;;34.60;1.00;;;;;;5079940;28;20412;-55
2022/07/16 08:27:47;;;;;;;7.43;2.05;;;34.40;1.00;;;;;;5071699;28;20521;-54
2022/07/16 08:30:13;;;;;;;7.38;3.58;;;34.30;1.00;;;;;;5078142;28;20859;-55
2022/07/16 08:32:38;;;;;;;6.13;2.67;;;35.30;1.00;;;;;;5078670;28;20490;-54
2022/07/16 08:35:05;;;;;;;6.80;2.50;;;35.10;1.00;;;;;;5069483;28;20382;-63
2022/07/16 08:37:37;;;;;;;7.85;2.50;;;34.00;1.00;;;;;;5070031;28;20380;-59
2022/07/16 08:40:06;;;;;;;6.50;2.30;;;33.80;1.00;;;;;;5069812;28;20383;-62
2022/07/16 08:42:33;;;;;;;6.70;2.30;;;34.00;1.00;;;;;;5070166;28;20941;-54
2022/07/16 08:44:59;;;;;;;7.30;2.30;;;34.30;1.00;;;;;;5070031;28;20380;-54
2022/07/16 08:47:27;;;;;;;8.30;3.33;;;33.80;1.00;;;;;;5069264;28;20470;-54
2022/07/16 08:49:54;;;;;;;6.47;2.65;;;33.40;1.00;;;;;;5069984;28;20973;-54
2022/07/16 08:52:23;;;;;;;7.30;3.00;;;33.60;1.00;;;;;;5069149;28;20395;-54
2022/07/16 08:54:49;;;;;;;6.80;2.15;;;33.80;1.00;;;;;;5075119;28;20400;-53
2022/07/16 08:57:16;;;;;;;6.55;2.15;;;33.30;1.00;;;;;;5072346;28;20418;-53
2022/07/16 08:59:42;;;;;;;7.20;2.03;;;33.60;1.00;;;;;;5070081;28;20478;-53
2022/07/16 09:02:14;;;;;;;6.45;2.40;;;33.90;1.00;;;;;;5069107;28;20478;-54
2022/07/16 09:04:41;;;;;;;7.22;2.75;;;34.80;1.00;;;;;;5089651;28;20406;-53
2022/07/16 09:07:10;;;;;;;6.75;2.50;;;35.30;1.00;;;;;;5087663;28;20473;-57
2022/07/16 09:09:36;;;;;;;6.60;2.33;;;35.10;1.00;;;;;;5085395;28;20494;-60
2022/07/16 09:12:01;;;;;;;7.70;2.50;;;35.20;1.00;;;;;;5078849;28;20776;-62
2022/07/16 09:14:27;;;;;;;7.13;2.58;;;35.30;1.00;;;;;;5077553;28;20826;-53
2022/07/16 09:16:54;;;;;;;8.90;2.20;;;35.00;1.00;;;;;;5078373;28;20936;-53
2022/07/16 09:19:24;;;;;;;8.50;2.50;;;33.50;1.00;;;;;;5078894;28;20474;-53
2022/07/16 09:22:08;;;;;;;8.10;2.20;;;33.60;1.00;;;;;;5079310;28;20421;-53
2022/07/16 09:24:40;;;;;;;9.07;2.22;;;34.40;1.00;;;;;;5081913;28;20973;-54
2022/07/16 09:27:14;;;;;;;5.57;1.80;;;35.40;1.00;;;;;;5088517;28;20409;-61
2022/07/16 09:29:51;;;;;;;7.03;2.00;;;34.60;1.00;;;;;;5081111;28;20437;-54
2022/07/16 09:32:36;;;;;;;6.43;2.40;;;34.90;1.00;;;;;;5079832;28;20434;-53
2022/07/16 09:35:10;;;;;;;6.10;2.10;;;35.00;1.00;;;;;;5080093;28;20484;-60
2022/07/16 09:37:54;;;;;;;5.80;1.92;;;34.80;1.00;;;;;;5078504;28;20815;-53
2022/07/16 09:40:40;;;;;;;7.50;2.30;;;34.50;1.00;;;;;;5078952;28;20386;-54
2022/07/16 09:43:12;;;;;;;8.57;2.13;;;35.10;1.00;;;;;;5072930;28;20404;-62
2022/07/16 09:45:41;;;;;;;7.37;1.90;;;34.80;1.00;;;;;;5079305;28;20913;-53
2022/07/16 09:48:28;;;;;;;8.20;2.20;;;35.40;1.00;;;;;;5073549;28;20410;-54
2022/07/16 09:50:56;;;;;;;6.13;1.92;;;35.90;1.00;;;;;;5069429;28;20384;-54
2022/07/16 09:53:25;;;;;;;9.17;2.60;;;36.00;1.00;;;;;;5068266;28;20470;-57
2022/07/16 09:56:11;;;;;;;7.30;2.22;;;35.40;1.00;;;;;;5072182;28;20428;-54
2022/07/16 09:58:37;;;;;;;6.30;2.00;;;33.60;1.00;;;;;;5079005;28;20970;-54
2022/07/16 10:01:05;;;;;;;10.30;2.20;;;33.70;1.00;;;;;;5068895;28;20417;-63
2022/07/16 10:03:31;;;;;;;10.20;2.50;;;33.60;1.00;;;;;;5089157;28;20389;-54
2022/07/16 10:05:57;;;;;;;6.70;2.70;;;33.90;1.00;;;;;;5093001;28;20388;-55
2022/07/16 10:08:24;;;;;;;8.80;2.30;;;34.60;1.00;;;;;;5089158;28;20386;-54
2022/07/16 10:10:50;;;;;;;5.80;2.38;;;34.20;1.00;;;;;;5084408;28;20437;-56
2022/07/16 10:13:18;;;;;;;7.40;2.50;;;34.00;1.00;;;;;;5082041;28;20385;-54
2022/07/16 10:15:46;;;;;;;6.70;2.20;;;33.90;1.00;;;;;;5081884;28;20392;-55
2022/07/16 10:18:42;;;;;;;6.57;1.80;;;33.80;1.00;;;;;;5090166;28;20448;-58
2022/07/16 10:21:14;;;;;;;6.80;2.10;;;34.00;1.00;;;;;;5079645;28;20415;-54
2022/07/16 10:23:42;;;;;;;6.83;1.80;;;33.80;1.00;;;;;;5082601;28;20401;-54
2022/07/16 10:26:16;;;;;;;6.97;1.70;;;33.80;1.00;;;;;;5082533;28;20383;-55
2022/07/16 10:28:45;;;;;;;9.27;2.30;;;34.60;1.00;;;;;;5081191;28;20938;-54
2022/07/16 10:31:37;;;;;;;7.18;2.28;;;34.20;1.00;;;;;;5089837;28;20743;-54
2022/07/16 10:34:14;;;;;;;6.20;2.10;;;34.20;1.00;;;;;;5092783;28;20370;-62
2022/07/16 10:36:55;;;;;;;8.10;5.15;;;33.10;1.00;;;;;;5092642;28;20469;-54
2022/07/16 10:39:23;;;;;;;7.90;5.50;;;31.30;1.00;;;;;;5089640;28;20398;-53
2022/07/16 10:41:53;;;;;;;6.50;5.00;;;30.40;1.00;;;;;;5092870;28;20409;-53
2022/07/16 10:44:23;;;;;;;7.07;5.43;;;30.20;1.00;;;;;;5090654;28;20378;-53
2022/07/16 10:47:04;;;;;;;7.40;5.30;;;30.00;99.90;;;;;;5089128;28;20506;-54
2022/07/16 10:49:30;;;;;;;9.10;4.72;;;30.00;99.90;;;;;;5083451;28;20422;-53
2022/07/16 10:52:00;;;;;;;7.40;5.07;;;30.00;99.90;;;;;;5087811;28;20787;-53
2022/07/16 10:54:30;;;;;;;9.13;5.20;;;29.80;99.90;;;;;;5082000;28;21044;-54
2022/07/16 10:56:58;;;;;;;6.85;4.97;;;29.40;99.90;;;;;;5089912;28;20496;-54
2022/07/16 10:59:36;;;;;;;7.68;4.90;;;29.50;99.90;;;;;;5090294;28;21004;-54
2022/07/16 11:02:09;;;;;;;8.33;3.40;;;29.50;99.90;;;;;;5085485;28;20412;-54
2022/07/16 11:04:40;;;;;;;7.53;3.70;;;29.30;99.90;;;;;;5089405;28;20843;-54
2022/07/16 11:07:11;;;;;;;6.85;4.03;;;29.50;99.90;;;;;;5088771;28;20455;-62
2022/07/16 11:09:44;;;;;;;7.85;4.00;;;29.60;99.90;;;;;;5090229;28;20779;-53
2022/07/16 11:12:38;;;;;;;7.05;4.00;;;30.90;99.90;;;;;;5090451;28;20402;-53
2022/07/16 11:15:04;;;;;;;7.90;4.15;;;30.20;99.90;;;;;;5085691;28;20406;-62
2022/07/16 11:17:30;;;;;;;6.80;4.20;;;29.80;99.90;;;;;;5085680;28;20378;-53
2022/07/16 11:19:59;;;;;;;6.50;4.25;;;29.60;99.90;;;;;;5091624;28;20381;-53
2022/07/16 11:22:27;;;;;;;7.97;4.20;;;29.30;99.90;;;;;;5088693;28;20460;-53
2022/07/16 11:25:01;;;;;;;7.40;4.40;;;29.10;99.90;;;;;;5089787;28;20389;-53
2022/07/16 11:27:39;;;;;;;6.50;4.10;;;29.40;99.90;;;;;;5083668;28;20627;-53
2022/07/16 11:30:07;;;;;;;7.63;4.20;;;29.60;99.90;;;;;;5082554;28;20386;-62
2022/07/16 11:32:40;;;;;;;8.77;4.47;;;29.00;99.90;;;;;;5085836;28;20426;-53
2022/07/16 11:35:06;;;;;;;6.53;4.32;;;28.80;99.90;;;;;;5080855;28;20417;-61
2022/07/16 11:38:07;;;;;;;5.90;3.70;;;29.10;99.90;;;;;;5086190;28;20439;-53
2022/07/16 11:40:34;;;;;;;6.65;3.95;;;28.50;99.90;;;;;;5004511;28;20409;-53
2022/07/16 11:43:00;;;;;;;9.82;4.50;;;28.40;99.90;;;;;;5064998;28;20908;-57
2022/07/16 11:45:27;;;;;;;7.10;4.15;;;28.60;99.90;;;;;;5089192;28;20374;-54
2022/07/16 11:48:12;;;;;;;6.13;4.00;;;28.60;99.90;;;;;;5083594;28;20493;-53
2022/07/16 11:50:39;;;;;;;6.30;4.50;;;28.70;99.90;;;;;;5084263;28;20389;-53
2022/07/16 11:53:05;;;;;;;8.30;4.10;;;28.30;99.90;;;;;;5090693;28;20375;-53
2022/07/16 11:55:31;;;;;;;7.10;3.78;;;28.80;99.90;;;;;;5087161;28;20413;-53
2022/07/16 11:57:56;;;;;;;6.13;3.67;;;29.20;99.90;;;;;;5091067;28;20859;-53
2022/07/16 12:00:22;;;;;;;6.07;3.90;;;29.20;99.90;;;;;;5087704;28;20398;-54
2022/07/16 12:02:55;;;;;;;6.60;3.40;;;28.80;99.90;;;;;;5088728;28;20421;-54
2022/07/16 12:05:27;;;;;;;7.18;3.60;;;28.70;99.90;;;;;;5087254;28;20389;-53
2022/07/16 12:07:52;;;;;;;6.40;3.80;;;28.80;99.90;;;;;;5091034;28;20386;-56
2022/07/16 12:10:23;;;;;;;6.20;3.80;;;29.10;99.90;;;;;;5085615;28;20451;-53
2022/07/16 12:13:03;;;;;;;6.18;3.80;;;29.00;99.90;;;;;;5081003;28;20454;-53
2022/07/16 12:15:29;;;;;;;6.13;3.65;;;29.10;99.90;;;;;;5089315;28;20386;-53
2022/07/16 12:17:55;;;;;;;7.00;3.95;;;29.00;99.90;;;;;;5089271;28;20445;-53
2022/07/16 12:20:27;;;;;;;6.15;4.00;;;29.20;99.90;;;;;;5089690;28;20389;-53
2022/07/16 12:23:01;;;;;;;8.40;3.30;;;29.20;99.90;;;;;;5090161;28;20441;-53
2022/07/16 12:25:27;;;;;;;6.25;3.80;;;29.00;99.90;;;;;;5086811;28;20413;-55
2022/07/16 12:27:57;;;;;;;5.72;3.33;;;29.00;99.90;;;;;;5086988;28;20422;-53
2022/07/16 12:30:43;;;;;;;6.00;3.55;;;28.70;99.90;;;;;;5080577;28;20382;-54
2022/07/16 12:33:27;;;;;;;5.63;3.80;;;29.10;99.90;;;;;;5079708;28;20388;-61
2022/07/16 12:36:09;;;;;;;5.93;3.70;;;29.20;99.90;;;;;;5079761;28;20863;-57
2022/07/16 12:38:55;;;;;;;7.40;4.10;;;29.30;99.90;;;;;;5083655;28;20505;-54
2022/07/16 12:41:37;;;;;;;7.60;4.00;;;29.30;99.90;;;;;;5081590;28;20403;-53
2022/07/16 12:44:05;;;;;;;7.10;3.65;;;29.10;99.90;;;;;;5087573;28;20412;-53
2022/07/16 12:46:34;;;;;;;5.90;3.33;;;29.30;99.90;;;;;;5089022;28;20382;-54
2022/07/16 12:49:03;;;;;;;7.17;3.63;;;29.10;99.90;;;;;;5090263;28;20382;-54
2022/07/16 12:51:31;;;;;;;6.50;3.80;;;29.20;99.90;;;;;;5088261;28;20394;-53
2022/07/16 12:53:58;;;;;;;5.93;3.28;;;29.10;99.90;;;;;;5081731;28;20392;-53
2022/07/16 12:59:10;;;;;;;6.30;3.25;;;28.80;99.90;;;;;;5088516;28;20398;-62
2022/07/16 13:01:36;;;;;;;6.28;4.13;;;28.60;99.90;;;;;;5089638;28;20408;-53